sensor_id;sensor_type;location;lat;lon;timestamp;P1;durP1;ratioP1;P2;durP2;ratioP2
74777;SDS011;63298;53.164;8.610;2023-01-08T00:00:57;2.45;;;2.00;;
74777;SDS011;63298;53.164;8.610;2023-01-08T00:03:27;2.75;;;2.30;;
74777;SDS011;63298;53.164;8.610;2023-01-08T00:05:53;2.78;;;2.20;;
74777;SDS011;63298;53.164;8.610;2023-01-08T00:08:18;2.08;;;1.90;;
74777;SDS011;63298;53.164;8.610;2023-01-08T00:10:43;2.03;;;1.80;;
74777;SDS011;63298;53.164;8.610;2023-01-08T00:13:09;2.20;;;2.00;;
74777;SDS011;63298;53.164;8.610;2023-01-08T00:15:34;3.15;;;2.25;;
74777;SDS011;63298;53.164;8.610;2023-01-08T00:17:59;2.25;;;1.75;;
74777;SDS011;63298;53.164;8.610;2023-01-08T00:20:25;2.40;;;2.05;;
74777;SDS011;63298;53.164;8.610;2023-01-08T00:22:51;3.83;;;2.10;;
74777;SDS011;63298;53.164;8.610;2023-01-08T00:25:17;2.90;;;2.03;;
74777;SDS011;63298;53.164;8.610;2023-01-08T00:27:43;2.38;;;2.10;;
74777;SDS011;63298;53.164;8.610;2023-01-08T00:30:09;2.13;;;1.80;;
74777;SDS011;63298;53.164;8.610;2023-01-08T00:32:35;2.80;;;2.00;;
74777;SDS011;63298;53.164;8.610;2023-01-08T00:35:00;2.58;;;2.20;;
74777;SDS011;63298;53.164;8.610;2023-01-08T00:37:26;2.10;;;2.00;;
74777;SDS011;63298;53.164;8.610;2023-01-08T00:39:52;2.25;;;1.77;;
74777;SDS011;63298;53.164;8.610;2023-01-08T00:42:17;3.47;;;2.45;;
74777;SDS011;63298;53.164;8.610;2023-01-08T00:44:43;2.28;;;1.90;;
74777;SDS011;63298;53.164;8.610;2023-01-08T00:47:08;4.45;;;2.22;;
74777;SDS011;63298;53.164;8.610;2023-01-08T00:49:33;2.13;;;1.92;;
74777;SDS011;63298;53.164;8.610;2023-01-08T00:51:59;4.53;;;2.15;;
74777;SDS011;63298;53.164;8.610;2023-01-08T00:54:24;4.53;;;2.47;;
74777;SDS011;63298;53.164;8.610;2023-01-08T00:56:49;2.40;;;2.20;;
74777;SDS011;63298;53.164;8.610;2023-01-08T00:59:15;3.33;;;2.40;;
74777;SDS011;63298;53.164;8.610;2023-01-08T01:01:40;2.60;;;2.15;;
74777;SDS011;63298;53.164;8.610;2023-01-08T01:04:06;4.25;;;2.40;;
74777;SDS011;63298;53.164;8.610;2023-01-08T01:06:34;2.38;;;1.90;;
74777;SDS011;63298;53.164;8.610;2023-01-08T01:08:59;2.20;;;2.00;;
74777;SDS011;63298;53.164;8.610;2023-01-08T01:11:25;5.40;;;2.40;;
74777;SDS011;63298;53.164;8.610;2023-01-08T01:13:53;1.92;;;1.83;;
74777;SDS011;63298;53.164;8.610;2023-01-08T01:16:21;3.45;;;2.15;;
74777;SDS011;63298;53.164;8.610;2023-01-08T01:18:47;2.53;;;2.30;;
74777;SDS011;63298;53.164;8.610;2023-01-08T01:21:22;3.20;;;2.10;;
74777;SDS011;63298;53.164;8.610;2023-01-08T01:23:53;4.25;;;2.40;;
74777;SDS011;63298;53.164;8.610;2023-01-08T01:26:20;4.03;;;2.13;;
74777;SDS011;63298;53.164;8.610;2023-01-08T01:28:47;3.47;;;2.28;;
74777;SDS011;63298;53.164;8.610;2023-01-08T01:31:19;2.25;;;2.05;;
74777;SDS011;63298;53.164;8.610;2023-01-08T01:33:45;3.47;;;2.47;;
74777;SDS011;63298;53.164;8.610;2023-01-08T01:36:11;2.40;;;2.20;;
74777;SDS011;63298;53.164;8.610;2023-01-08T01:38:46;2.88;;;2.30;;
74777;SDS011;63298;53.164;8.610;2023-01-08T01:43:56;2.78;;;2.10;;
74777;SDS011;63298;53.164;8.610;2023-01-08T01:46:44;3.92;;;2.38;;
74777;SDS011;63298;53.164;8.610;2023-01-08T01:49:21;2.38;;;2.15;;
74777;SDS011;63298;53.164;8.610;2023-01-08T01:51:48;4.20;;;2.55;;
74777;SDS011;63298;53.164;8.610;2023-01-08T01:56:42;2.58;;;2.20;;
74777;SDS011;63298;53.164;8.610;2023-01-08T01:59:10;2.40;;;2.15;;
74777;SDS011;63298;53.164;8.610;2023-01-08T02:01:36;2.70;;;1.80;;
74777;SDS011;63298;53.164;8.610;2023-01-08T02:04:02;2.55;;;1.95;;
74777;SDS011;63298;53.164;8.610;2023-01-08T02:14:25;3.03;;;2.08;;
74777;SDS011;63298;53.164;8.610;2023-01-08T02:17:00;2.50;;;1.75;;
74777;SDS011;63298;53.164;8.610;2023-01-08T02:28:04;2.88;;;1.90;;
74777;SDS011;63298;53.164;8.610;2023-01-08T02:30:34;2.25;;;2.08;;
74777;SDS011;63298;53.164;8.610;2023-01-08T02:33:00;1.90;;;1.80;;
74777;SDS011;63298;53.164;8.610;2023-01-08T02:35:36;3.10;;;2.45;;
74777;SDS011;63298;53.164;8.610;2023-01-08T02:38:07;2.20;;;2.00;;
74777;SDS011;63298;53.164;8.610;2023-01-08T02:40:51;2.08;;;1.85;;
74777;SDS011;63298;53.164;8.610;2023-01-08T02:43:25;2.20;;;1.95;;
74777;SDS011;63298;53.164;8.610;2023-01-08T02:45:58;2.22;;;2.03;;
74777;SDS011;63298;53.164;8.610;2023-01-08T02:50:58;1.92;;;1.83;;
74777;SDS011;63298;53.164;8.610;2023-01-08T02:53:42;3.30;;;2.17;;
74777;SDS011;63298;53.164;8.610;2023-01-08T02:56:12;3.58;;;2.13;;
74777;SDS011;63298;53.164;8.610;2023-01-08T03:01:06;3.17;;;2.03;;
74777;SDS011;63298;53.164;8.610;2023-01-08T03:03:34;2.83;;;2.10;;
74777;SDS011;63298;53.164;8.610;2023-01-08T03:06:13;2.50;;;2.15;;
74777;SDS011;63298;53.164;8.610;2023-01-08T03:08:41;2.63;;;1.98;;
74777;SDS011;63298;53.164;8.610;2023-01-08T03:11:10;2.67;;;1.90;;
74777;SDS011;63298;53.164;8.610;2023-01-08T03:13:45;2.28;;;2.10;;
74777;SDS011;63298;53.164;8.610;2023-01-08T03:21:36;3.17;;;2.40;;
74777;SDS011;63298;53.164;8.610;2023-01-08T03:24:04;3.40;;;2.33;;
74777;SDS011;63298;53.164;8.610;2023-01-08T03:26:31;2.72;;;2.15;;
74777;SDS011;63298;53.164;8.610;2023-01-08T03:28:57;3.28;;;2.08;;
74777;SDS011;63298;53.164;8.610;2023-01-08T03:31:24;2.10;;;2.00;;
74777;SDS011;63298;53.164;8.610;2023-01-08T03:33:52;3.92;;;2.65;;
74777;SDS011;63298;53.164;8.610;2023-01-08T03:36:23;5.13;;;2.63;;
74777;SDS011;63298;53.164;8.610;2023-01-08T03:38:55;2.13;;;1.98;;
74777;SDS011;63298;53.164;8.610;2023-01-08T03:41:24;2.40;;;2.20;;
74777;SDS011;63298;53.164;8.610;2023-01-08T03:43:52;2.17;;;1.98;;
74777;SDS011;63298;53.164;8.610;2023-01-08T03:46:24;4.50;;;2.33;;
74777;SDS011;63298;53.164;8.610;2023-01-08T03:48:53;3.75;;;2.22;;
74777;SDS011;63298;53.164;8.610;2023-01-08T03:51:20;3.90;;;2.08;;
74777;SDS011;63298;53.164;8.610;2023-01-08T03:53:46;2.63;;;1.90;;
74777;SDS011;63298;53.164;8.610;2023-01-08T03:56:14;2.75;;;2.10;;
74777;SDS011;63298;53.164;8.610;2023-01-08T03:58:39;3.60;;;2.17;;
74777;SDS011;63298;53.164;8.610;2023-01-08T04:01:06;2.42;;;2.10;;
74777;SDS011;63298;53.164;8.610;2023-01-08T04:03:31;2.70;;;2.40;;
74777;SDS011;63298;53.164;8.610;2023-01-08T04:05:59;4.75;;;2.20;;
74777;SDS011;63298;53.164;8.610;2023-01-08T04:08:25;3.17;;;2.13;;
74777;SDS011;63298;53.164;8.610;2023-01-08T04:10:51;3.35;;;2.20;;
74777;SDS011;63298;53.164;8.610;2023-01-08T04:13:16;2.08;;;1.98;;
74777;SDS011;63298;53.164;8.610;2023-01-08T04:15:46;3.75;;;2.30;;
74777;SDS011;63298;53.164;8.610;2023-01-08T04:18:15;2.55;;;2.05;;
74777;SDS011;63298;53.164;8.610;2023-01-08T04:20:44;3.88;;;2.10;;
74777;SDS011;63298;53.164;8.610;2023-01-08T04:23:11;3.88;;;2.17;;
74777;SDS011;63298;53.164;8.610;2023-01-08T04:25:37;2.28;;;1.92;;
74777;SDS011;63298;53.164;8.610;2023-01-08T04:28:02;2.10;;;2.00;;
74777;SDS011;63298;53.164;8.610;2023-01-08T04:30:28;2.92;;;2.15;;
74777;SDS011;63298;53.164;8.610;2023-01-08T04:32:54;2.78;;;2.17;;
74777;SDS011;63298;53.164;8.610;2023-01-08T04:35:19;3.08;;;2.10;;
74777;SDS011;63298;53.164;8.610;2023-01-08T04:37:44;3.45;;;1.90;;
74777;SDS011;63298;53.164;8.610;2023-01-08T04:40:10;3.90;;;1.88;;
74777;SDS011;63298;53.164;8.610;2023-01-08T04:42:36;2.22;;;1.90;;
74777;SDS011;63298;53.164;8.610;2023-01-08T04:45:01;5.25;;;2.13;;
74777;SDS011;63298;53.164;8.610;2023-01-08T04:47:26;2.42;;;2.03;;
74777;SDS011;63298;53.164;8.610;2023-01-08T04:49:52;3.23;;;1.97;;
74777;SDS011;63298;53.164;8.610;2023-01-08T04:52:17;2.88;;;1.83;;
74777;SDS011;63298;53.164;8.610;2023-01-08T04:54:42;2.25;;;1.80;;
74777;SDS011;63298;53.164;8.610;2023-01-08T04:57:08;2.58;;;1.95;;
74777;SDS011;63298;53.164;8.610;2023-01-08T04:59:33;3.55;;;1.90;;
74777;SDS011;63298;53.164;8.610;2023-01-08T05:01:58;2.28;;;2.08;;
74777;SDS011;63298;53.164;8.610;2023-01-08T05:04:24;2.35;;;2.05;;
74777;SDS011;63298;53.164;8.610;2023-01-08T05:06:49;2.10;;;1.73;;
74777;SDS011;63298;53.164;8.610;2023-01-08T05:09:17;3.40;;;2.10;;
74777;SDS011;63298;53.164;8.610;2023-01-08T05:11:42;2.20;;;1.83;;
74777;SDS011;63298;53.164;8.610;2023-01-08T05:14:08;1.92;;;1.75;;
74777;SDS011;63298;53.164;8.610;2023-01-08T05:16:33;2.40;;;1.73;;
74777;SDS011;63298;53.164;8.610;2023-01-08T05:18:58;2.92;;;1.70;;
74777;SDS011;63298;53.164;8.610;2023-01-08T05:21:24;2.85;;;2.10;;
74777;SDS011;63298;53.164;8.610;2023-01-08T05:23:49;2.22;;;2.03;;
74777;SDS011;63298;53.164;8.610;2023-01-08T05:26:15;1.80;;;1.70;;
74777;SDS011;63298;53.164;8.610;2023-01-08T05:28:41;2.17;;;2.05;;
74777;SDS011;63298;53.164;8.610;2023-01-08T05:31:07;2.63;;;1.98;;
74777;SDS011;63298;53.164;8.610;2023-01-08T05:33:32;2.70;;;1.98;;
74777;SDS011;63298;53.164;8.610;2023-01-08T05:35:58;2.83;;;2.00;;
74777;SDS011;63298;53.164;8.610;2023-01-08T05:38:23;2.10;;;1.90;;
74777;SDS011;63298;53.164;8.610;2023-01-08T05:40:52;2.35;;;2.10;;
74777;SDS011;63298;53.164;8.610;2023-01-08T05:43:17;5.15;;;1.92;;
74777;SDS011;63298;53.164;8.610;2023-01-08T05:45:43;5.63;;;2.20;;
74777;SDS011;63298;53.164;8.610;2023-01-08T05:48:08;3.88;;;2.13;;
74777;SDS011;63298;53.164;8.610;2023-01-08T05:50:33;2.08;;;1.80;;
74777;SDS011;63298;53.164;8.610;2023-01-08T05:52:59;2.45;;;2.03;;
74777;SDS011;63298;53.164;8.610;2023-01-08T05:55:24;2.65;;;1.75;;
74777;SDS011;63298;53.164;8.610;2023-01-08T05:57:50;5.38;;;2.30;;
74777;SDS011;63298;53.164;8.610;2023-01-08T06:00:15;2.35;;;1.88;;
74777;SDS011;63298;53.164;8.610;2023-01-08T06:02:44;6.03;;;2.25;;
74777;SDS011;63298;53.164;8.610;2023-01-08T06:05:11;3.38;;;2.05;;
74777;SDS011;63298;53.164;8.610;2023-01-08T06:07:36;2.38;;;1.90;;
74777;SDS011;63298;53.164;8.610;2023-01-08T06:10:01;4.63;;;2.17;;
74777;SDS011;63298;53.164;8.610;2023-01-08T06:12:27;5.55;;;2.25;;
74777;SDS011;63298;53.164;8.610;2023-01-08T06:14:52;3.05;;;2.00;;
74777;SDS011;63298;53.164;8.610;2023-01-08T06:17:17;3.78;;;2.05;;
74777;SDS011;63298;53.164;8.610;2023-01-08T06:19:42;3.30;;;2.22;;
74777;SDS011;63298;53.164;8.610;2023-01-08T06:22:08;3.67;;;2.13;;
74777;SDS011;63298;53.164;8.610;2023-01-08T06:24:33;7.10;;;2.00;;
74777;SDS011;63298;53.164;8.610;2023-01-08T06:26:58;2.22;;;1.75;;
74777;SDS011;63298;53.164;8.610;2023-01-08T06:29:24;2.25;;;1.70;;
74777;SDS011;63298;53.164;8.610;2023-01-08T06:31:49;5.00;;;1.92;;
74777;SDS011;63298;53.164;8.610;2023-01-08T06:34:14;2.78;;;1.85;;
74777;SDS011;63298;53.164;8.610;2023-01-08T06:36:40;2.75;;;1.85;;
74777;SDS011;63298;53.164;8.610;2023-01-08T06:39:06;2.47;;;1.63;;
74777;SDS011;63298;53.164;8.610;2023-01-08T06:41:32;4.22;;;1.90;;
74777;SDS011;63298;53.164;8.610;2023-01-08T06:43:57;1.90;;;1.77;;
74777;SDS011;63298;53.164;8.610;2023-01-08T06:46:23;3.47;;;1.52;;
74777;SDS011;63298;53.164;8.610;2023-01-08T06:48:48;2.88;;;1.92;;
74777;SDS011;63298;53.164;8.610;2023-01-08T06:51:13;2.35;;;1.50;;
74777;SDS011;63298;53.164;8.610;2023-01-08T06:53:39;2.90;;;1.88;;
74777;SDS011;63298;53.164;8.610;2023-01-08T06:56:04;2.00;;;1.73;;
74777;SDS011;63298;53.164;8.610;2023-01-08T06:58:30;3.85;;;1.73;;
74777;SDS011;63298;53.164;8.610;2023-01-08T07:00:55;2.85;;;1.77;;
74777;SDS011;63298;53.164;8.610;2023-01-08T07:03:20;1.70;;;1.60;;
74777;SDS011;63298;53.164;8.610;2023-01-08T07:05:46;1.70;;;1.60;;
74777;SDS011;63298;53.164;8.610;2023-01-08T07:08:12;2.53;;;1.55;;
74777;SDS011;63298;53.164;8.610;2023-01-08T07:10:39;2.95;;;1.80;;
74777;SDS011;63298;53.164;8.610;2023-01-08T07:13:05;1.98;;;1.80;;
74777;SDS011;63298;53.164;8.610;2023-01-08T07:15:30;2.10;;;1.60;;
74777;SDS011;63298;53.164;8.610;2023-01-08T07:17:55;2.33;;;1.63;;
74777;SDS011;63298;53.164;8.610;2023-01-08T07:20:21;2.03;;;1.73;;
74777;SDS011;63298;53.164;8.610;2023-01-08T07:22:46;3.20;;;1.63;;
74777;SDS011;63298;53.164;8.610;2023-01-08T07:25:11;1.63;;;1.38;;
74777;SDS011;63298;53.164;8.610;2023-01-08T07:27:37;2.95;;;1.70;;
74777;SDS011;63298;53.164;8.610;2023-01-08T07:30:02;14.35;;;1.92;;
74777;SDS011;63298;53.164;8.610;2023-01-08T07:32:27;1.95;;;1.55;;
74777;SDS011;63298;53.164;8.610;2023-01-08T07:34:53;2.40;;;1.67;;
74777;SDS011;63298;53.164;8.610;2023-01-08T07:37:18;3.10;;;1.52;;
74777;SDS011;63298;53.164;8.610;2023-01-08T07:39:44;1.83;;;1.50;;
74777;SDS011;63298;53.164;8.610;2023-01-08T07:42:09;2.05;;;1.77;;
74777;SDS011;63298;53.164;8.610;2023-01-08T07:44:34;3.30;;;1.73;;
74777;SDS011;63298;53.164;8.610;2023-01-08T07:46:59;3.08;;;1.73;;
74777;SDS011;63298;53.164;8.610;2023-01-08T07:49:25;2.60;;;1.63;;
74777;SDS011;63298;53.164;8.610;2023-01-08T07:51:50;3.42;;;1.90;;
74777;SDS011;63298;53.164;8.610;2023-01-08T07:54:16;3.72;;;1.98;;
74777;SDS011;63298;53.164;8.610;2023-01-08T07:56:41;3.55;;;1.83;;
74777;SDS011;63298;53.164;8.610;2023-01-08T07:59:06;2.00;;;1.80;;
74777;SDS011;63298;53.164;8.610;2023-01-08T08:01:32;4.47;;;2.00;;
74777;SDS011;63298;53.164;8.610;2023-01-08T08:03:57;3.58;;;1.70;;
74777;SDS011;63298;53.164;8.610;2023-01-08T08:06:22;2.85;;;1.77;;
74777;SDS011;63298;53.164;8.610;2023-01-08T08:08:48;2.15;;;1.80;;
74777;SDS011;63298;53.164;8.610;2023-01-08T08:11:13;3.22;;;2.03;;
74777;SDS011;63298;53.164;8.610;2023-01-08T08:13:38;1.60;;;1.50;;
74777;SDS011;63298;53.164;8.610;2023-01-08T08:16:04;1.98;;;1.83;;
74777;SDS011;63298;53.164;8.610;2023-01-08T08:18:29;2.05;;;1.85;;
74777;SDS011;63298;53.164;8.610;2023-01-08T08:20:55;2.67;;;1.92;;
74777;SDS011;63298;53.164;8.610;2023-01-08T08:23:20;1.92;;;1.83;;
74777;SDS011;63298;53.164;8.610;2023-01-08T08:25:46;2.17;;;1.92;;
74777;SDS011;63298;53.164;8.610;2023-01-08T08:28:11;2.47;;;1.92;;
74777;SDS011;63298;53.164;8.610;2023-01-08T08:30:37;2.50;;;2.00;;
74777;SDS011;63298;53.164;8.610;2023-01-08T08:33:04;3.80;;;2.13;;
74777;SDS011;63298;53.164;8.610;2023-01-08T08:35:31;1.50;;;1.40;;
74777;SDS011;63298;53.164;8.610;2023-01-08T08:38:00;3.20;;;2.00;;
74777;SDS011;63298;53.164;8.610;2023-01-08T08:40:26;1.75;;;1.65;;
74777;SDS011;63298;53.164;8.610;2023-01-08T08:42:59;2.70;;;1.70;;
74777;SDS011;63298;53.164;8.610;2023-01-08T08:45:26;3.47;;;1.70;;
74777;SDS011;63298;53.164;8.610;2023-01-08T08:47:52;2.92;;;1.58;;
74777;SDS011;63298;53.164;8.610;2023-01-08T08:50:17;4.00;;;1.77;;
74777;SDS011;63298;53.164;8.610;2023-01-08T08:52:43;5.85;;;1.70;;
74777;SDS011;63298;53.164;8.610;2023-01-08T08:55:09;2.95;;;1.60;;
74777;SDS011;63298;53.164;8.610;2023-01-08T08:57:34;2.80;;;1.50;;
74777;SDS011;63298;53.164;8.610;2023-01-08T09:00:00;1.73;;;1.63;;
74777;SDS011;63298;53.164;8.610;2023-01-08T09:02:25;2.22;;;1.90;;
74777;SDS011;63298;53.164;8.610;2023-01-08T09:04:50;3.60;;;2.03;;
74777;SDS011;63298;53.164;8.610;2023-01-08T09:07:16;3.15;;;1.65;;
74777;SDS011;63298;53.164;8.610;2023-01-08T09:09:41;3.17;;;1.67;;
74777;SDS011;63298;53.164;8.610;2023-01-08T09:12:06;4.30;;;1.40;;
74777;SDS011;63298;53.164;8.610;2023-01-08T09:14:33;1.95;;;1.85;;
74777;SDS011;63298;53.164;8.610;2023-01-08T09:16:58;2.13;;;1.50;;
74777;SDS011;63298;53.164;8.610;2023-01-08T09:19:23;1.95;;;1.60;;
74777;SDS011;63298;53.164;8.610;2023-01-08T09:21:49;2.42;;;1.67;;
74777;SDS011;63298;53.164;8.610;2023-01-08T09:24:14;1.20;;;1.10;;
74777;SDS011;63298;53.164;8.610;2023-01-08T09:26:39;2.45;;;1.33;;
74777;SDS011;63298;53.164;8.610;2023-01-08T09:29:05;2.72;;;1.50;;
74777;SDS011;63298;53.164;8.610;2023-01-08T09:31:30;1.85;;;1.48;;
74777;SDS011;63298;53.164;8.610;2023-01-08T09:33:55;2.78;;;1.80;;
74777;SDS011;63298;53.164;8.610;2023-01-08T09:36:21;2.97;;;1.20;;
74777;SDS011;63298;53.164;8.610;2023-01-08T09:38:46;1.70;;;1.40;;
74777;SDS011;63298;53.164;8.610;2023-01-08T09:41:18;1.65;;;1.20;;
74777;SDS011;63298;53.164;8.610;2023-01-08T09:43:49;1.27;;;1.23;;
74777;SDS011;63298;53.164;8.610;2023-01-08T09:46:17;1.88;;;1.35;;
74777;SDS011;63298;53.164;8.610;2023-01-08T09:48:45;1.35;;;1.20;;
74777;SDS011;63298;53.164;8.610;2023-01-08T09:51:14;1.70;;;1.20;;
74777;SDS011;63298;53.164;8.610;2023-01-08T09:53:41;4.45;;;1.65;;
74777;SDS011;63298;53.164;8.610;2023-01-08T09:56:14;2.65;;;1.25;;
74777;SDS011;63298;53.164;8.610;2023-01-08T09:58:51;1.67;;;1.20;;
74777;SDS011;63298;53.164;8.610;2023-01-08T10:01:19;2.85;;;1.10;;
74777;SDS011;63298;53.164;8.610;2023-01-08T10:03:51;3.72;;;1.40;;
74777;SDS011;63298;53.164;8.610;2023-01-08T10:06:22;3.40;;;1.30;;
74777;SDS011;63298;53.164;8.610;2023-01-08T10:08:48;1.10;;;1.00;;
74777;SDS011;63298;53.164;8.610;2023-01-08T10:11:14;2.28;;;1.17;;
74777;SDS011;63298;53.164;8.610;2023-01-08T10:13:40;0.90;;;0.90;;
74777;SDS011;63298;53.164;8.610;2023-01-08T10:16:14;2.17;;;1.02;;
74777;SDS011;63298;53.164;8.610;2023-01-08T10:18:46;2.35;;;1.17;;
74777;SDS011;63298;53.164;8.610;2023-01-08T10:21:12;3.03;;;0.90;;
74777;SDS011;63298;53.164;8.610;2023-01-08T10:23:47;1.27;;;1.00;;
74777;SDS011;63298;53.164;8.610;2023-01-08T10:28:48;0.93;;;0.90;;
74777;SDS011;63298;53.164;8.610;2023-01-08T10:31:14;2.50;;;1.15;;
74777;SDS011;63298;53.164;8.610;2023-01-08T10:33:41;1.48;;;0.88;;
74777;SDS011;63298;53.164;8.610;2023-01-08T10:36:21;2.72;;;0.90;;
74777;SDS011;63298;53.164;8.610;2023-01-08T10:38:49;2.92;;;0.93;;
74777;SDS011;63298;53.164;8.610;2023-01-08T10:41:18;5.93;;;1.05;;
74777;SDS011;63298;53.164;8.610;2023-01-08T10:43:50;0.70;;;0.70;;
74777;SDS011;63298;53.164;8.610;2023-01-08T10:46:30;2.58;;;0.82;;
74777;SDS011;63298;53.164;8.610;2023-01-08T10:49:01;1.75;;;0.80;;
74777;SDS011;63298;53.164;8.610;2023-01-08T10:51:30;2.78;;;0.90;;
74777;SDS011;63298;53.164;8.610;2023-01-08T10:54:19;2.88;;;0.90;;
74777;SDS011;63298;53.164;8.610;2023-01-08T10:56:52;2.08;;;0.90;;
74777;SDS011;63298;53.164;8.610;2023-01-08T10:59:20;1.17;;;0.80;;
74777;SDS011;63298;53.164;8.610;2023-01-08T11:01:47;0.70;;;0.70;;
74777;SDS011;63298;53.164;8.610;2023-01-08T11:04:19;2.65;;;0.70;;
74777;SDS011;63298;53.164;8.610;2023-01-08T11:06:47;3.42;;;0.95;;
74777;SDS011;63298;53.164;8.610;2023-01-08T11:09:23;2.35;;;1.00;;
74777;SDS011;63298;53.164;8.610;2023-01-08T11:11:51;0.93;;;0.93;;
74777;SDS011;63298;53.164;8.610;2023-01-08T11:16:58;0.80;;;0.70;;
74777;SDS011;63298;53.164;8.610;2023-01-08T11:19:26;0.80;;;0.80;;
74777;SDS011;63298;53.164;8.610;2023-01-08T11:24:33;0.80;;;0.80;;
74777;SDS011;63298;53.164;8.610;2023-01-08T11:37:49;3.17;;;0.90;;
74777;SDS011;63298;53.164;8.610;2023-01-08T12:02:54;3.05;;;0.90;;
74777;SDS011;63298;53.164;8.610;2023-01-08T12:19:24;5.70;;;1.33;;
74777;SDS011;63298;53.164;8.610;2023-01-08T12:22:02;2.80;;;1.15;;
74777;SDS011;63298;53.164;8.610;2023-01-08T12:30:14;5.65;;;1.13;;
74777;SDS011;63298;53.164;8.610;2023-01-08T12:32:46;7.85;;;1.45;;
74777;SDS011;63298;53.164;8.610;2023-01-08T12:37:47;3.10;;;1.05;;
74777;SDS011;63298;53.164;8.610;2023-01-08T12:42:51;5.15;;;1.02;;
74777;SDS011;63298;53.164;8.610;2023-01-08T12:47:50;5.97;;;1.08;;
74777;SDS011;63298;53.164;8.610;2023-01-08T12:51:06;4.10;;;1.15;;
74777;SDS011;63298;53.164;8.610;2023-01-08T12:53:25;9.93;;;1.10;;
74777;SDS011;63298;53.164;8.610;2023-01-08T12:58:48;10.38;;;1.00;;
74777;SDS011;63298;53.164;8.610;2023-01-08T13:03:52;9.20;;;1.45;;
74777;SDS011;63298;53.164;8.610;2023-01-08T13:06:19;2.10;;;0.68;;
74777;SDS011;63298;53.164;8.610;2023-01-08T13:08:47;6.05;;;1.17;;
74777;SDS011;63298;53.164;8.610;2023-01-08T13:11:22;7.28;;;1.08;;
74777;SDS011;63298;53.164;8.610;2023-01-08T13:13:57;10.13;;;1.33;;
74777;SDS011;63298;53.164;8.610;2023-01-08T13:16:26;6.05;;;1.00;;
74777;SDS011;63298;53.164;8.610;2023-01-08T13:18:58;7.10;;;1.13;;
74777;SDS011;63298;53.164;8.610;2023-01-08T13:21:35;5.22;;;1.38;;
74777;SDS011;63298;53.164;8.610;2023-01-08T13:24:24;2.65;;;1.38;;
74777;SDS011;63298;53.164;8.610;2023-01-08T13:27:39;7.20;;;1.10;;
74777;SDS011;63298;53.164;8.610;2023-01-08T13:29:49;11.93;;;1.38;;
74777;SDS011;63298;53.164;8.610;2023-01-08T13:37:49;6.57;;;0.93;;
74777;SDS011;63298;53.164;8.610;2023-01-08T13:43:12;15.48;;;1.35;;
74777;SDS011;63298;53.164;8.610;2023-01-08T13:45:43;6.97;;;1.25;;
74777;SDS011;63298;53.164;8.610;2023-01-08T13:48:24;5.30;;;1.52;;
74777;SDS011;63298;53.164;8.610;2023-01-08T13:50:51;4.95;;;1.25;;
74777;SDS011;63298;53.164;8.610;2023-01-08T13:53:18;7.25;;;0.93;;
74777;SDS011;63298;53.164;8.610;2023-01-08T13:56:26;7.53;;;1.65;;
74777;SDS011;63298;53.164;8.610;2023-01-08T13:58:41;7.70;;;1.23;;
74777;SDS011;63298;53.164;8.610;2023-01-08T14:01:09;9.02;;;1.38;;
74777;SDS011;63298;53.164;8.610;2023-01-08T14:03:37;6.47;;;1.40;;
74777;SDS011;63298;53.164;8.610;2023-01-08T14:08:47;6.07;;;1.20;;
74777;SDS011;63298;53.164;8.610;2023-01-08T14:11:13;6.95;;;1.25;;
74777;SDS011;63298;53.164;8.610;2023-01-08T14:13:38;6.03;;;1.00;;
74777;SDS011;63298;53.164;8.610;2023-01-08T14:16:04;7.57;;;1.50;;
74777;SDS011;63298;53.164;8.610;2023-01-08T14:18:30;9.77;;;1.92;;
74777;SDS011;63298;53.164;8.610;2023-01-08T14:20:56;2.70;;;1.02;;
74777;SDS011;63298;53.164;8.610;2023-01-08T14:23:23;12.85;;;1.67;;
74777;SDS011;63298;53.164;8.610;2023-01-08T14:28:18;8.45;;;1.38;;
74777;SDS011;63298;53.164;8.610;2023-01-08T14:30:52;5.95;;;1.10;;
74777;SDS011;63298;53.164;8.610;2023-01-08T14:33:20;3.38;;;1.08;;
74777;SDS011;63298;53.164;8.610;2023-01-08T14:35:48;8.30;;;1.30;;
74777;SDS011;63298;53.164;8.610;2023-01-08T14:38:15;9.63;;;1.50;;
74777;SDS011;63298;53.164;8.610;2023-01-08T14:40:41;6.90;;;1.42;;
74777;SDS011;63298;53.164;8.610;2023-01-08T14:43:12;11.50;;;1.50;;
74777;SDS011;63298;53.164;8.610;2023-01-08T14:45:44;7.40;;;1.48;;
74777;SDS011;63298;53.164;8.610;2023-01-08T14:48:14;7.40;;;1.38;;
74777;SDS011;63298;53.164;8.610;2023-01-08T14:50:44;11.57;;;1.60;;
74777;SDS011;63298;53.164;8.610;2023-01-08T14:56:16;8.82;;;0.98;;
74777;SDS011;63298;53.164;8.610;2023-01-08T14:58:48;4.25;;;1.10;;
74777;SDS011;63298;53.164;8.610;2023-01-08T15:03:44;4.72;;;1.20;;
74777;SDS011;63298;53.164;8.610;2023-01-08T15:08:52;9.88;;;1.20;;
74777;SDS011;63298;53.164;8.610;2023-01-08T15:13:43;2.67;;;0.90;;
74777;SDS011;63298;53.164;8.610;2023-01-08T15:16:11;4.95;;;1.00;;
74777;SDS011;63298;53.164;8.610;2023-01-08T15:21:54;4.47;;;1.48;;
74777;SDS011;63298;53.164;8.610;2023-01-08T15:24:31;2.53;;;1.20;;
74777;SDS011;63298;53.164;8.610;2023-01-08T15:27:02;8.90;;;1.35;;
74777;SDS011;63298;53.164;8.610;2023-01-08T15:29:28;6.03;;;1.38;;
74777;SDS011;63298;53.164;8.610;2023-01-08T15:31:55;9.63;;;1.50;;
74777;SDS011;63298;53.164;8.610;2023-01-08T15:34:31;5.03;;;1.35;;
74777;SDS011;63298;53.164;8.610;2023-01-08T15:36:57;6.25;;;1.23;;
74777;SDS011;63298;53.164;8.610;2023-01-08T15:39:22;5.65;;;1.40;;
74777;SDS011;63298;53.164;8.610;2023-01-08T15:41:47;9.87;;;1.33;;
74777;SDS011;63298;53.164;8.610;2023-01-08T15:44:13;7.97;;;1.30;;
74777;SDS011;63298;53.164;8.610;2023-01-08T15:46:38;6.03;;;1.30;;
74777;SDS011;63298;53.164;8.610;2023-01-08T15:49:04;6.93;;;1.60;;
74777;SDS011;63298;53.164;8.610;2023-01-08T15:51:30;6.95;;;1.45;;
74777;SDS011;63298;53.164;8.610;2023-01-08T15:53:58;3.28;;;1.50;;
74777;SDS011;63298;53.164;8.610;2023-01-08T15:56:24;8.05;;;1.83;;
74777;SDS011;63298;53.164;8.610;2023-01-08T15:58:49;4.57;;;1.40;;
74777;SDS011;63298;53.164;8.610;2023-01-08T16:01:14;6.13;;;1.63;;
74777;SDS011;63298;53.164;8.610;2023-01-08T16:03:40;6.37;;;1.67;;
74777;SDS011;63298;53.164;8.610;2023-01-08T16:06:05;7.43;;;1.20;;
74777;SDS011;63298;53.164;8.610;2023-01-08T16:08:31;5.95;;;1.30;;
74777;SDS011;63298;53.164;8.610;2023-01-08T16:10:57;6.18;;;1.20;;
74777;SDS011;63298;53.164;8.610;2023-01-08T16:13:22;3.72;;;1.38;;
74777;SDS011;63298;53.164;8.610;2023-01-08T16:15:47;9.70;;;1.15;;
74777;SDS011;63298;53.164;8.610;2023-01-08T16:18:13;9.27;;;1.90;;
74777;SDS011;63298;53.164;8.610;2023-01-08T16:20:38;12.88;;;1.73;;
74777;SDS011;63298;53.164;8.610;2023-01-08T16:23:04;5.50;;;1.73;;
74777;SDS011;63298;53.164;8.610;2023-01-08T16:25:29;8.55;;;1.65;;
74777;SDS011;63298;53.164;8.610;2023-01-08T16:27:54;5.00;;;1.58;;
74777;SDS011;63298;53.164;8.610;2023-01-08T16:30:19;7.65;;;1.50;;
74777;SDS011;63298;53.164;8.610;2023-01-08T16:32:48;5.50;;;1.38;;
74777;SDS011;63298;53.164;8.610;2023-01-08T16:35:14;10.07;;;1.58;;
74777;SDS011;63298;53.164;8.610;2023-01-08T16:37:40;5.88;;;1.85;;
74777;SDS011;63298;53.164;8.610;2023-01-08T16:40:05;7.07;;;1.48;;
74777;SDS011;63298;53.164;8.610;2023-01-08T16:42:31;9.23;;;1.70;;
74777;SDS011;63298;53.164;8.610;2023-01-08T16:44:57;6.20;;;1.87;;
74777;SDS011;63298;53.164;8.610;2023-01-08T16:47:22;8.88;;;1.70;;
74777;SDS011;63298;53.164;8.610;2023-01-08T16:49:47;6.88;;;2.58;;
74777;SDS011;63298;53.164;8.610;2023-01-08T16:52:12;9.55;;;2.22;;
74777;SDS011;63298;53.164;8.610;2023-01-08T16:54:38;8.73;;;2.15;;
74777;SDS011;63298;53.164;8.610;2023-01-08T16:57:03;5.32;;;1.92;;
74777;SDS011;63298;53.164;8.610;2023-01-08T16:59:29;6.25;;;1.95;;
74777;SDS011;63298;53.164;8.610;2023-01-08T17:01:54;3.33;;;1.37;;
74777;SDS011;63298;53.164;8.610;2023-01-08T17:04:19;4.65;;;1.23;;